sensor_id;sensor_type;location;lat;lon;timestamp;P1;durP1;ratioP1;P2;durP2;ratioP2
20411;SDS011;10365;52.578;8.138;2023-04-03T00:00:48;7.53;;;2.17;;
20411;SDS011;10365;52.578;8.138;2023-04-03T00:03:18;7.93;;;1.80;;
20411;SDS011;10365;52.578;8.138;2023-04-03T00:05:43;4.65;;;1.42;;
20411;SDS011;10365;52.578;8.138;2023-04-03T00:08:09;7.10;;;1.92;;
20411;SDS011;10365;52.578;8.138;2023-04-03T00:10:38;8.95;;;2.03;;
20411;SDS011;10365;52.578;8.138;2023-04-03T00:13:03;4.22;;;1.42;;
20411;SDS011;10365;52.578;8.138;2023-04-03T00:15:29;9.73;;;2.08;;
20411;SDS011;10365;52.578;8.138;2023-04-03T00:17:55;11.05;;;2.60;;
20411;SDS011;10365;52.578;8.138;2023-04-03T00:20:20;6.15;;;2.13;;
20411;SDS011;10365;52.578;8.138;2023-04-03T00:22:45;6.97;;;1.60;;
20411;SDS011;10365;52.578;8.138;2023-04-03T00:25:11;7.38;;;1.83;;
20411;SDS011;10365;52.578;8.138;2023-04-03T00:27:37;6.78;;;1.60;;
20411;SDS011;10365;52.578;8.138;2023-04-03T00:30:03;5.35;;;2.05;;
20411;SDS011;10365;52.578;8.138;2023-04-03T00:32:28;6.15;;;2.20;;
20411;SDS011;10365;52.578;8.138;2023-04-03T00:34:54;8.02;;;1.67;;
20411;SDS011;10365;52.578;8.138;2023-04-03T00:37:19;8.13;;;2.03;;
20411;SDS011;10365;52.578;8.138;2023-04-03T00:39:45;9.35;;;1.70;;
20411;SDS011;10365;52.578;8.138;2023-04-03T00:42:10;4.63;;;1.70;;
20411;SDS011;10365;52.578;8.138;2023-04-03T00:47:02;8.90;;;1.80;;
20411;SDS011;10365;52.578;8.138;2023-04-03T00:49:28;8.23;;;2.15;;
20411;SDS011;10365;52.578;8.138;2023-04-03T00:51:54;5.43;;;1.67;;
20411;SDS011;10365;52.578;8.138;2023-04-03T00:54:21;7.15;;;1.90;;
20411;SDS011;10365;52.578;8.138;2023-04-03T00:56:46;6.55;;;1.85;;
20411;SDS011;10365;52.578;8.138;2023-04-03T00:59:23;5.45;;;1.95;;
20411;SDS011;10365;52.578;8.138;2023-04-03T01:01:52;7.43;;;2.55;;
20411;SDS011;10365;52.578;8.138;2023-04-03T01:07:00;6.60;;;1.83;;
20411;SDS011;10365;52.578;8.138;2023-04-03T01:09:27;6.80;;;1.55;;
20411;SDS011;10365;52.578;8.138;2023-04-03T01:11:53;9.77;;;1.70;;
20411;SDS011;10365;52.578;8.138;2023-04-03T01:14:19;8.48;;;1.67;;
20411;SDS011;10365;52.578;8.138;2023-04-03T01:16:53;6.32;;;1.60;;
20411;SDS011;10365;52.578;8.138;2023-04-03T01:19:19;6.90;;;1.67;;
20411;SDS011;10365;52.578;8.138;2023-04-03T01:24:33;9.02;;;1.48;;
20411;SDS011;10365;52.578;8.138;2023-04-03T01:27:03;5.93;;;1.15;;
20411;SDS011;10365;52.578;8.138;2023-04-03T01:29:29;7.07;;;1.33;;
20411;SDS011;10365;52.578;8.138;2023-04-03T01:31:55;4.38;;;1.08;;
20411;SDS011;10365;52.578;8.138;2023-04-03T01:34:21;6.78;;;1.65;;
20411;SDS011;10365;52.578;8.138;2023-04-03T01:36:48;6.68;;;1.73;;
20411;SDS011;10365;52.578;8.138;2023-04-03T01:39:14;7.10;;;1.30;;
20411;SDS011;10365;52.578;8.138;2023-04-03T01:41:39;7.47;;;1.70;;
20411;SDS011;10365;52.578;8.138;2023-04-03T01:44:21;8.68;;;1.45;;
20411;SDS011;10365;52.578;8.138;2023-04-03T01:46:47;5.72;;;1.67;;
20411;SDS011;10365;52.578;8.138;2023-04-03T01:49:12;3.10;;;1.30;;
20411;SDS011;10365;52.578;8.138;2023-04-03T01:51:38;5.78;;;1.27;;
20411;SDS011;10365;52.578;8.138;2023-04-03T01:54:04;6.90;;;1.30;;
20411;SDS011;10365;52.578;8.138;2023-04-03T01:56:29;6.55;;;1.42;;
20411;SDS011;10365;52.578;8.138;2023-04-03T01:58:55;4.70;;;1.35;;
20411;SDS011;10365;52.578;8.138;2023-04-03T02:01:21;8.50;;;1.40;;
20411;SDS011;10365;52.578;8.138;2023-04-03T02:03:46;7.65;;;1.48;;
20411;SDS011;10365;52.578;8.138;2023-04-03T02:06:12;8.80;;;2.05;;
20411;SDS011;10365;52.578;8.138;2023-04-03T02:08:37;7.93;;;1.83;;
20411;SDS011;10365;52.578;8.138;2023-04-03T02:11:05;6.93;;;2.28;;
20411;SDS011;10365;52.578;8.138;2023-04-03T02:13:32;6.95;;;1.80;;
20411;SDS011;10365;52.578;8.138;2023-04-03T02:15:58;6.82;;;2.00;;
20411;SDS011;10365;52.578;8.138;2023-04-03T02:18:24;6.53;;;2.00;;
20411;SDS011;10365;52.578;8.138;2023-04-03T02:20:49;8.90;;;2.25;;
20411;SDS011;10365;52.578;8.138;2023-04-03T02:23:15;10.02;;;2.28;;
20411;SDS011;10365;52.578;8.138;2023-04-03T02:25:41;7.45;;;2.13;;
20411;SDS011;10365;52.578;8.138;2023-04-03T02:28:06;5.32;;;2.25;;
20411;SDS011;10365;52.578;8.138;2023-04-03T02:30:31;5.40;;;2.25;;
20411;SDS011;10365;52.578;8.138;2023-04-03T02:32:57;8.43;;;2.47;;
20411;SDS011;10365;52.578;8.138;2023-04-03T02:35:24;6.32;;;2.35;;
20411;SDS011;10365;52.578;8.138;2023-04-03T02:37:49;5.25;;;1.95;;
20411;SDS011;10365;52.578;8.138;2023-04-03T02:40:15;7.10;;;1.73;;
20411;SDS011;10365;52.578;8.138;2023-04-03T02:42:41;6.25;;;1.90;;
20411;SDS011;10365;52.578;8.138;2023-04-03T02:45:06;2.58;;;1.40;;
20411;SDS011;10365;52.578;8.138;2023-04-03T02:47:32;8.93;;;1.83;;
20411;SDS011;10365;52.578;8.138;2023-04-03T02:49:57;7.85;;;1.67;;
20411;SDS011;10365;52.578;8.138;2023-04-03T02:52:23;3.30;;;1.73;;
20411;SDS011;10365;52.578;8.138;2023-04-03T02:54:50;6.00;;;1.80;;
20411;SDS011;10365;52.578;8.138;2023-04-03T02:57:16;9.10;;;2.00;;
20411;SDS011;10365;52.578;8.138;2023-04-03T02:59:41;6.88;;;1.67;;
20411;SDS011;10365;52.578;8.138;2023-04-03T03:02:09;5.00;;;1.73;;
20411;SDS011;10365;52.578;8.138;2023-04-03T03:04:35;4.55;;;1.90;;
20411;SDS011;10365;52.578;8.138;2023-04-03T03:07:01;10.77;;;2.13;;
20411;SDS011;10365;52.578;8.138;2023-04-03T03:09:27;10.43;;;2.17;;
20411;SDS011;10365;52.578;8.138;2023-04-03T03:11:53;18.73;;;2.30;;
20411;SDS011;10365;52.578;8.138;2023-04-03T03:14:18;4.47;;;1.63;;
20411;SDS011;10365;52.578;8.138;2023-04-03T03:16:44;6.55;;;1.70;;
20411;SDS011;10365;52.578;8.138;2023-04-03T03:19:10;8.70;;;1.80;;
20411;SDS011;10365;52.578;8.138;2023-04-03T03:21:35;6.40;;;1.73;;
20411;SDS011;10365;52.578;8.138;2023-04-03T03:24:01;8.48;;;1.80;;
20411;SDS011;10365;52.578;8.138;2023-04-03T03:26:26;4.68;;;1.52;;
20411;SDS011;10365;52.578;8.138;2023-04-03T03:28:52;12.30;;;2.20;;
20411;SDS011;10365;52.578;8.138;2023-04-03T03:31:17;6.13;;;2.85;;
20411;SDS011;10365;52.578;8.138;2023-04-03T03:33:42;6.53;;;1.92;;
20411;SDS011;10365;52.578;8.138;2023-04-03T03:36:08;5.22;;;1.50;;
20411;SDS011;10365;52.578;8.138;2023-04-03T03:38:35;6.65;;;2.08;;
20411;SDS011;10365;52.578;8.138;2023-04-03T03:41:01;5.35;;;1.60;;
20411;SDS011;10365;52.578;8.138;2023-04-03T03:43:27;13.23;;;1.52;;
20411;SDS011;10365;52.578;8.138;2023-04-03T03:45:53;9.77;;;1.95;;
20411;SDS011;10365;52.578;8.138;2023-04-03T03:48:21;4.88;;;1.92;;
20411;SDS011;10365;52.578;8.138;2023-04-03T03:50:47;11.65;;;2.05;;
20411;SDS011;10365;52.578;8.138;2023-04-03T03:53:14;12.25;;;2.25;;
20411;SDS011;10365;52.578;8.138;2023-04-03T03:55:40;10.55;;;1.95;;
20411;SDS011;10365;52.578;8.138;2023-04-03T03:58:06;9.52;;;1.95;;
20411;SDS011;10365;52.578;8.138;2023-04-03T04:00:32;5.47;;;1.88;;
20411;SDS011;10365;52.578;8.138;2023-04-03T04:02:59;8.95;;;2.30;;
20411;SDS011;10365;52.578;8.138;2023-04-03T04:05:25;8.38;;;2.80;;
20411;SDS011;10365;52.578;8.138;2023-04-03T04:07:52;14.48;;;2.97;;
20411;SDS011;10365;52.578;8.138;2023-04-03T04:10:17;8.38;;;3.28;;
20411;SDS011;10365;52.578;8.138;2023-04-03T04:12:44;5.32;;;2.58;;
20411;SDS011;10365;52.578;8.138;2023-04-03T04:15:10;10.30;;;2.63;;
20411;SDS011;10365;52.578;8.138;2023-04-03T04:17:37;7.68;;;2.47;;
20411;SDS011;10365;52.578;8.138;2023-04-03T04:20:04;5.20;;;2.05;;
20411;SDS011;10365;52.578;8.138;2023-04-03T04:22:31;11.25;;;2.20;;
20411;SDS011;10365;52.578;8.138;2023-04-03T04:24:56;7.35;;;2.00;;
20411;SDS011;10365;52.578;8.138;2023-04-03T04:27:22;9.88;;;2.15;;
20411;SDS011;10365;52.578;8.138;2023-04-03T04:29:47;8.40;;;2.08;;
20411;SDS011;10365;52.578;8.138;2023-04-03T04:32:13;6.18;;;1.60;;
20411;SDS011;10365;52.578;8.138;2023-04-03T04:34:39;5.90;;;1.67;;
20411;SDS011;10365;52.578;8.138;2023-04-03T04:37:04;6.50;;;1.80;;
20411;SDS011;10365;52.578;8.138;2023-04-03T04:39:30;5.60;;;1.67;;
20411;SDS011;10365;52.578;8.138;2023-04-03T04:41:57;4.40;;;1.42;;
20411;SDS011;10365;52.578;8.138;2023-04-03T04:44:24;6.93;;;1.80;;
20411;SDS011;10365;52.578;8.138;2023-04-03T04:46:50;3.75;;;1.33;;
20411;SDS011;10365;52.578;8.138;2023-04-03T04:49:15;4.93;;;1.70;;
20411;SDS011;10365;52.578;8.138;2023-04-03T04:51:41;8.88;;;1.50;;
20411;SDS011;10365;52.578;8.138;2023-04-03T04:54:08;4.30;;;1.60;;
20411;SDS011;10365;52.578;8.138;2023-04-03T04:56:33;9.20;;;2.30;;
20411;SDS011;10365;52.578;8.138;2023-04-03T04:58:58;7.97;;;2.13;;
20411;SDS011;10365;52.578;8.138;2023-04-03T05:01:25;12.52;;;2.45;;
20411;SDS011;10365;52.578;8.138;2023-04-03T05:04:00;15.80;;;3.05;;
20411;SDS011;10365;52.578;8.138;2023-04-03T05:06:25;11.02;;;2.72;;
20411;SDS011;10365;52.578;8.138;2023-04-03T05:08:52;19.50;;;3.13;;
20411;SDS011;10365;52.578;8.138;2023-04-03T05:11:19;9.95;;;2.47;;
20411;SDS011;10365;52.578;8.138;2023-04-03T05:13:49;4.88;;;2.15;;
20411;SDS011;10365;52.578;8.138;2023-04-03T05:16:15;14.63;;;4.40;;
20411;SDS011;10365;52.578;8.138;2023-04-03T05:18:41;39.90;;;7.10;;
20411;SDS011;10365;52.578;8.138;2023-04-03T05:21:10;26.85;;;6.30;;
20411;SDS011;10365;52.578;8.138;2023-04-03T05:23:36;28.10;;;8.27;;
20411;SDS011;10365;52.578;8.138;2023-04-03T05:26:02;32.05;;;7.93;;
20411;SDS011;10365;52.578;8.138;2023-04-03T05:28:29;46.13;;;10.40;;
20411;SDS011;10365;52.578;8.138;2023-04-03T05:30:56;29.90;;;7.68;;
20411;SDS011;10365;52.578;8.138;2023-04-03T05:33:23;44.47;;;10.73;;
20411;SDS011;10365;52.578;8.138;2023-04-03T05:35:52;51.85;;;12.73;;
20411;SDS011;10365;52.578;8.138;2023-04-03T05:38:23;83.57;;;17.88;;
20411;SDS011;10365;52.578;8.138;2023-04-03T05:40:49;73.07;;;16.52;;
20411;SDS011;10365;52.578;8.138;2023-04-03T05:43:15;51.53;;;12.75;;
20411;SDS011;10365;52.578;8.138;2023-04-03T05:45:43;27.75;;;6.60;;
20411;SDS011;10365;52.578;8.138;2023-04-03T05:48:08;14.23;;;3.17;;
20411;SDS011;10365;52.578;8.138;2023-04-03T05:50:34;17.65;;;3.03;;
20411;SDS011;10365;52.578;8.138;2023-04-03T05:52:59;13.88;;;2.85;;
20411;SDS011;10365;52.578;8.138;2023-04-03T05:55:28;8.88;;;2.80;;
20411;SDS011;10365;52.578;8.138;2023-04-03T05:57:54;14.52;;;2.45;;
20411;SDS011;10365;52.578;8.138;2023-04-03T06:00:20;17.58;;;2.88;;
20411;SDS011;10365;52.578;8.138;2023-04-03T06:02:55;9.98;;;2.58;;
20411;SDS011;10365;52.578;8.138;2023-04-03T06:05:23;13.63;;;4.53;;
20411;SDS011;10365;52.578;8.138;2023-04-03T06:07:49;16.92;;;4.25;;
20411;SDS011;10365;52.578;8.138;2023-04-03T06:10:15;15.50;;;5.75;;
20411;SDS011;10365;52.578;8.138;2023-04-03T06:12:42;8.73;;;3.95;;
20411;SDS011;10365;52.578;8.138;2023-04-03T06:15:07;10.60;;;2.85;;
20411;SDS011;10365;52.578;8.138;2023-04-03T06:17:35;6.72;;;2.55;;
20411;SDS011;10365;52.578;8.138;2023-04-03T06:20:01;11.38;;;2.25;;
20411;SDS011;10365;52.578;8.138;2023-04-03T06:22:27;14.60;;;3.22;;
20411;SDS011;10365;52.578;8.138;2023-04-03T06:24:55;14.93;;;2.30;;
20411;SDS011;10365;52.578;8.138;2023-04-03T06:27:21;10.02;;;1.92;;
20411;SDS011;10365;52.578;8.138;2023-04-03T06:29:46;7.75;;;2.13;;
20411;SDS011;10365;52.578;8.138;2023-04-03T06:32:11;12.23;;;2.38;;
20411;SDS011;10365;52.578;8.138;2023-04-03T06:34:37;13.05;;;3.08;;
20411;SDS011;10365;52.578;8.138;2023-04-03T06:37:03;9.68;;;2.08;;
20411;SDS011;10365;52.578;8.138;2023-04-03T06:39:28;11.07;;;2.40;;
20411;SDS011;10365;52.578;8.138;2023-04-03T06:41:54;2.70;;;1.33;;
20411;SDS011;10365;52.578;8.138;2023-04-03T06:44:28;7.47;;;1.80;;
20411;SDS011;10365;52.578;8.138;2023-04-03T06:46:53;7.40;;;1.67;;
20411;SDS011;10365;52.578;8.138;2023-04-03T06:49:19;10.48;;;1.63;;
20411;SDS011;10365;52.578;8.138;2023-04-03T06:51:44;15.18;;;1.42;;
20411;SDS011;10365;52.578;8.138;2023-04-03T06:54:10;5.50;;;1.40;;
20411;SDS011;10365;52.578;8.138;2023-04-03T06:56:35;4.95;;;1.05;;
20411;SDS011;10365;52.578;8.138;2023-04-03T06:59:01;11.65;;;1.30;;
20411;SDS011;10365;52.578;8.138;2023-04-03T07:01:27;3.78;;;1.00;;
20411;SDS011;10365;52.578;8.138;2023-04-03T07:03:53;4.35;;;1.23;;
20411;SDS011;10365;52.578;8.138;2023-04-03T07:06:19;5.22;;;1.00;;
20411;SDS011;10365;52.578;8.138;2023-04-03T07:08:45;6.25;;;1.08;;
20411;SDS011;10365;52.578;8.138;2023-04-03T07:11:11;8.02;;;1.25;;
20411;SDS011;10365;52.578;8.138;2023-04-03T07:13:37;3.72;;;0.80;;
20411;SDS011;10365;52.578;8.138;2023-04-03T07:16:03;9.65;;;1.05;;
20411;SDS011;10365;52.578;8.138;2023-04-03T07:18:31;14.13;;;1.30;;
20411;SDS011;10365;52.578;8.138;2023-04-03T07:20:57;5.15;;;0.80;;
20411;SDS011;10365;52.578;8.138;2023-04-03T07:23:23;5.25;;;1.00;;
20411;SDS011;10365;52.578;8.138;2023-04-03T07:25:49;10.07;;;0.93;;
20411;SDS011;10365;52.578;8.138;2023-04-03T07:28:16;9.63;;;1.10;;
20411;SDS011;10365;52.578;8.138;2023-04-03T07:30:42;10.45;;;1.67;;
20411;SDS011;10365;52.578;8.138;2023-04-03T07:33:07;8.05;;;0.98;;
20411;SDS011;10365;52.578;8.138;2023-04-03T07:35:33;10.48;;;0.80;;
20411;SDS011;10365;52.578;8.138;2023-04-03T07:37:58;5.75;;;0.80;;
20411;SDS011;10365;52.578;8.138;2023-04-03T07:40:23;6.70;;;0.73;;
20411;SDS011;10365;52.578;8.138;2023-04-03T07:42:50;8.57;;;1.23;;
20411;SDS011;10365;52.578;8.138;2023-04-03T07:45:16;6.65;;;1.35;;
20411;SDS011;10365;52.578;8.138;2023-04-03T07:47:42;10.65;;;1.45;;
20411;SDS011;10365;52.578;8.138;2023-04-03T07:50:07;4.35;;;0.63;;
20411;SDS011;10365;52.578;8.138;2023-04-03T07:52:33;5.85;;;1.00;;
20411;SDS011;10365;52.578;8.138;2023-04-03T07:54:58;5.05;;;0.52;;
20411;SDS011;10365;52.578;8.138;2023-04-03T07:57:24;8.30;;;0.70;;
20411;SDS011;10365;52.578;8.138;2023-04-03T07:59:49;7.65;;;0.82;;
20411;SDS011;10365;52.578;8.138;2023-04-03T08:02:15;4.35;;;0.95;;
20411;SDS011;10365;52.578;8.138;2023-04-03T08:04:40;3.08;;;0.70;;
20411;SDS011;10365;52.578;8.138;2023-04-03T08:07:06;4.75;;;0.70;;
20411;SDS011;10365;52.578;8.138;2023-04-03T08:09:31;3.15;;;0.77;;
20411;SDS011;10365;52.578;8.138;2023-04-03T08:11:57;8.25;;;0.82;;
20411;SDS011;10365;52.578;8.138;2023-04-03T08:14:22;6.82;;;1.00;;
20411;SDS011;10365;52.578;8.138;2023-04-03T08:16:48;9.10;;;0.90;;
20411;SDS011;10365;52.578;8.138;2023-04-03T08:19:14;8.38;;;1.08;;
20411;SDS011;10365;52.578;8.138;2023-04-03T08:21:41;4.38;;;1.00;;
20411;SDS011;10365;52.578;8.138;2023-04-03T08:24:09;13.68;;;1.75;;
20411;SDS011;10365;52.578;8.138;2023-04-03T08:26:35;3.03;;;0.70;;
20411;SDS011;10365;52.578;8.138;2023-04-03T08:29:01;7.32;;;1.10;;
20411;SDS011;10365;52.578;8.138;2023-04-03T08:31:26;5.03;;;1.05;;
20411;SDS011;10365;52.578;8.138;2023-04-03T08:33:52;2.92;;;0.60;;
20411;SDS011;10365;52.578;8.138;2023-04-03T08:38:43;1.80;;;0.70;;
20411;SDS011;10365;52.578;8.138;2023-04-03T08:49:15;5.50;;;0.85;;
20411;SDS011;10365;52.578;8.138;2023-04-03T08:51:45;4.30;;;0.70;;
20411;SDS011;10365;52.578;8.138;2023-04-03T08:54:17;3.08;;;0.65;;
20411;SDS011;10365;52.578;8.138;2023-04-03T08:56:43;6.65;;;1.15;;
20411;SDS011;10365;52.578;8.138;2023-04-03T08:59:13;5.85;;;1.13;;
20411;SDS011;10365;52.578;8.138;2023-04-03T09:01:40;8.18;;;0.88;;
20411;SDS011;10365;52.578;8.138;2023-04-03T09:04:10;2.88;;;0.98;;
20411;SDS011;10365;52.578;8.138;2023-04-03T09:06:36;1.88;;;0.50;;
20411;SDS011;10365;52.578;8.138;2023-04-03T09:09:23;3.85;;;0.50;;
20411;SDS011;10365;52.578;8.138;2023-04-03T09:11:58;4.03;;;0.95;;
20411;SDS011;10365;52.578;8.138;2023-04-03T09:21:48;5.93;;;0.88;;
20411;SDS011;10365;52.578;8.138;2023-04-03T09:24:15;3.60;;;0.80;;
20411;SDS011;10365;52.578;8.138;2023-04-03T09:26:56;4.40;;;1.00;;
20411;SDS011;10365;52.578;8.138;2023-04-03T09:29:25;2.47;;;0.70;;
20411;SDS011;10365;52.578;8.138;2023-04-03T09:31:58;3.58;;;0.90;;
20411;SDS011;10365;52.578;8.138;2023-04-03T09:34:28;6.10;;;0.85;;
20411;SDS011;10365;52.578;8.138;2023-04-03T09:36:56;2.42;;;0.70;;
20411;SDS011;10365;52.578;8.138;2023-04-03T09:39:25;4.63;;;0.70;;
20411;SDS011;10365;52.578;8.138;2023-04-03T09:44:37;3.15;;;0.70;;
20411;SDS011;10365;52.578;8.138;2023-04-03T09:47:19;5.15;;;0.95;;
20411;SDS011;10365;52.578;8.138;2023-04-03T09:49:48;4.38;;;0.70;;
20411;SDS011;10365;52.578;8.138;2023-04-03T09:52:23;3.45;;;1.10;;
20411;SDS011;10365;52.578;8.138;2023-04-03T09:55:05;3.58;;;1.10;;
20411;SDS011;10365;52.578;8.138;2023-04-03T09:57:34;2.28;;;0.88;;
20411;SDS011;10365;52.578;8.138;2023-04-03T10:00:00;1.50;;;0.60;;
20411;SDS011;10365;52.578;8.138;2023-04-03T10:05:00;5.18;;;0.93;;
20411;SDS011;10365;52.578;8.138;2023-04-03T10:09:59;4.25;;;1.27;;
20411;SDS011;10365;52.578;8.138;2023-04-03T10:12:48;3.28;;;0.95;;
20411;SDS011;10365;52.578;8.138;2023-04-03T10:15:15;3.20;;;0.75;;
20411;SDS011;10365;52.578;8.138;2023-04-03T10:20:10;2.20;;;0.82;;
20411;SDS011;10365;52.578;8.138;2023-04-03T10:32:50;1.85;;;0.60;;
20411;SDS011;10365;52.578;8.138;2023-04-03T10:38:15;1.80;;;0.80;;
20411;SDS011;10365;52.578;8.138;2023-04-03T10:40:50;4.10;;;0.75;;
20411;SDS011;10365;52.578;8.138;2023-04-03T10:48:16;2.75;;;0.60;;
20411;SDS011;10365;52.578;8.138;2023-04-03T10:50:50;5.22;;;0.65;;
20411;SDS011;10365;52.578;8.138;2023-04-03T11:00:51;2.47;;;0.60;;
20411;SDS011;10365;52.578;8.138;2023-04-03T11:05:52;5.30;;;1.00;;
20411;SDS011;10365;52.578;8.138;2023-04-03T11:10:57;4.55;;;0.90;;
20411;SDS011;10365;52.578;8.138;2023-04-03T11:13:30;1.55;;;0.60;;
20411;SDS011;10365;52.578;8.138;2023-04-03T11:15:58;2.75;;;0.57;;
20411;SDS011;10365;52.578;8.138;2023-04-03T11:18:28;2.10;;;0.60;;
20411;SDS011;10365;52.578;8.138;2023-04-03T11:21:02;1.98;;;0.60;;
20411;SDS011;10365;52.578;8.138;2023-04-03T11:23:36;3.75;;;0.98;;
20411;SDS011;10365;52.578;8.138;2023-04-03T11:26:12;3.78;;;0.63;;
20411;SDS011;10365;52.578;8.138;2023-04-03T11:28:38;1.63;;;0.50;;
20411;SDS011;10365;52.578;8.138;2023-04-03T11:31:08;2.67;;;0.75;;
20411;SDS011;10365;52.578;8.138;2023-04-03T11:33:40;3.55;;;1.02;;
20411;SDS011;10365;52.578;8.138;2023-04-03T11:36:12;1.25;;;0.40;;
20411;SDS011;10365;52.578;8.138;2023-04-03T11:38:42;2.80;;;0.70;;
20411;SDS011;10365;52.578;8.138;2023-04-03T11:41:09;4.60;;;0.70;;
20411;SDS011;10365;52.578;8.138;2023-04-03T11:46:48;1.58;;;0.60;;
20411;SDS011;10365;52.578;8.138;2023-04-03T11:51:58;2.10;;;0.68;;
20411;SDS011;10365;52.578;8.138;2023-04-03T11:59:52;3.38;;;1.10;;
20411;SDS011;10365;52.578;8.138;2023-04-03T12:02:36;4.80;;;1.15;;
20411;SDS011;10365;52.578;8.138;2023-04-03T12:05:35;4.05;;;0.85;;
20411;SDS011;10365;52.578;8.138;2023-04-03T12:08:16;2.53;;;0.60;;
20411;SDS011;10365;52.578;8.138;2023-04-03T12:10:39;2.63;;;0.60;;
20411;SDS011;10365;52.578;8.138;2023-04-03T12:13:15;3.75;;;0.65;;
20411;SDS011;10365;52.578;8.138;2023-04-03T12:18:30;2.85;;;0.68;;
20411;SDS011;10365;52.578;8.138;2023-04-03T12:20:57;3.08;;;0.80;;
20411;SDS011;10365;52.578;8.138;2023-04-03T12:23:24;4.50;;;1.00;;
20411;SDS011;10365;52.578;8.138;2023-04-03T12:25:50;3.60;;;0.88;;
20411;SDS011;10365;52.578;8.138;2023-04-03T12:28:16;4.05;;;0.90;;
20411;SDS011;10365;52.578;8.138;2023-04-03T12:30:42;1.63;;;0.60;;
20411;SDS011;10365;52.578;8.138;2023-04-03T12:33:27;2.65;;;0.80;;
20411;SDS011;10365;52.578;8.138;2023-04-03T12:36:08;5.55;;;0.70;;
20411;SDS011;10365;52.578;8.138;2023-04-03T12:46:09;3.03;;;0.70;;
20411;SDS011;10365;52.578;8.138;2023-04-03T12:48:39;3.53;;;0.85;;
20411;SDS011;10365;52.578;8.138;2023-04-03T12:51:15;2.30;;;0.73;;
20411;SDS011;10365;52.578;8.138;2023-04-03T12:53:42;2.75;;;0.77;;
20411;SDS011;10365;52.578;8.138;2023-04-03T12:56:27;0.90;;;0.50;;
20411;SDS011;10365;52.578;8.138;2023-04-03T12:58:53;2.88;;;0.60;;
20411;SDS011;10365;52.578;8.138;2023-04-03T13:01:23;2.15;;;0.70;;
20411;SDS011;10365;52.578;8.138;2023-04-03T13:03:50;1.95;;;0.45;;
20411;SDS011;10365;52.578;8.138;2023-04-03T13:06:28;5.18;;;1.08;;
20411;SDS011;10365;52.578;8.138;2023-04-03T13:08:56;1.35;;;0.50;;
20411;SDS011;10365;52.578;8.138;2023-04-03T13:11:23;5.28;;;0.70;;
20411;SDS011;10365;52.578;8.138;2023-04-03T13:14:00;2.30;;;0.60;;
20411;SDS011;10365;52.578;8.138;2023-04-03T13:16:26;4.85;;;0.88;;
20411;SDS011;10365;52.578;8.138;2023-04-03T13:18:52;2.70;;;0.70;;
20411;SDS011;10365;52.578;8.138;2023-04-03T13:21:19;5.43;;;0.77;;
20411;SDS011;10365;52.578;8.138;2023-04-03T13:23:47;4.35;;;0.80;;
20411;SDS011;10365;52.578;8.138;2023-04-03T13:26:15;4.38;;;1.00;;
20411;SDS011;10365;52.578;8.138;2023-04-03T13:28:41;3.08;;;0.80;;
20411;SDS011;10365;52.578;8.138;2023-04-03T13:31:09;3.47;;;0.63;;
20411;SDS011;10365;52.578;8.138;2023-04-03T13:33:50;2.72;;;0.77;;
20411;SDS011;10365;52.578;8.138;2023-04-03T13:36:17;6.60;;;0.70;;
20411;SDS011;10365;52.578;8.138;2023-04-03T13:38:44;2.60;;;0.52;;
20411;SDS011;10365;52.578;8.138;2023-04-03T13:41:26;2.15;;;0.60;;
20411;SDS011;10365;52.578;8.138;2023-04-03T13:43:54;2.80;;;0.90;;
20411;SDS011;10365;52.578;8.138;2023-04-03T13:48:55;5.82;;;0.68;;
20411;SDS011;10365;52.578;8.138;2023-04-03T13:51:24;3.38;;;0.73;;
20411;SDS011;10365;52.578;8.138;2023-04-03T13:53:52;2.35;;;0.80;;
20411;SDS011;10365;52.578;8.138;2023-04-03T13:56:32;2.58;;;0.80;;
20411;SDS011;10365;52.578;8.138;2023-04-03T13:59:06;1.42;;;0.65;;
20411;SDS011;10365;52.578;8.138;2023-04-03T14:04:23;3.95;;;0.80;;
20411;SDS011;10365;52.578;8.138;2023-04-03T14:06:50;3.63;;;0.90;;
20411;SDS011;10365;52.578;8.138;2023-04-03T14:09:17;2.60;;;0.93;;
20411;SDS011;10365;52.578;8.138;2023-04-03T14:11:43;5.45;;;0.80;;
20411;SDS011;10365;52.578;8.138;2023-04-03T14:14:19;4.10;;;0.88;;
20411;SDS011;10365;52.578;8.138;2023-04-03T14:16:46;4.53;;;0.82;;
20411;SDS011;10365;52.578;8.138;2023-04-03T14:19:20;4.25;;;1.00;;
20411;SDS011;10365;52.578;8.138;2023-04-03T14:21:46;2.30;;;0.93;;
20411;SDS011;10365;52.578;8.138;2023-04-03T14:24:11;2.88;;;0.65;;
20411;SDS011;10365;52.578;8.138;2023-04-03T14:26:37;2.28;;;0.65;;
20411;SDS011;10365;52.578;8.138;2023-04-03T14:29:02;2.28;;;0.93;;
20411;SDS011;10365;52.578;8.138;2023-04-03T14:31:28;2.65;;;0.70;;
20411;SDS011;10365;52.578;8.138;2023-04-03T14:33:53;2.50;;;0.88;;
20411;SDS011;10365;52.578;8.138;2023-04-03T14:36:22;2.88;;;0.70;;
20411;SDS011;10365;52.578;8.138;2023-04-03T14:38:50;5.40;;;0.60;;
20411;SDS011;10365;52.578;8.138;2023-04-03T14:41:16;3.65;;;0.90;;
20411;SDS011;10365;52.578;8.138;2023-04-03T14:43:43;3.40;;;0.90;;
20411;SDS011;10365;52.578;8.138;2023-04-03T14:46:11;5.32;;;0.98;;
20411;SDS011;10365;52.578;8.138;2023-04-03T14:48:37;3.42;;;0.50;;
20411;SDS011;10365;52.578;8.138;2023-04-03T14:51:02;4.55;;;0.80;;
20411;SDS011;10365;52.578;8.138;2023-04-03T14:53:28;2.17;;;0.70;;
20411;SDS011;10365;52.578;8.138;2023-04-03T14:55:54;2.97;;;1.02;;
20411;SDS011;10365;52.578;8.138;2023-04-03T14:58:20;6.55;;;1.17;;
20411;SDS011;10365;52.578;8.138;2023-04-03T15:00:46;1.77;;;0.60;;
20411;SDS011;10365;52.578;8.138;2023-04-03T15:03:12;2.65;;;0.70;;
20411;SDS011;10365;52.578;8.138;2023-04-03T15:05:41;2.38;;;0.70;;
20411;SDS011;10365;52.578;8.138;2023-04-03T15:08:17;7.70;;;1.23;;
20411;SDS011;10365;52.578;8.138;2023-04-03T15:10:44;2.25;;;0.90;;
20411;SDS011;10365;52.578;8.138;2023-04-03T15:13:10;3.58;;;0.90;;
20411;SDS011;10365;52.578;8.138;2023-04-03T15:15:37;3.83;;;1.00;;
20411;SDS011;10365;52.578;8.138;2023-04-03T15:18:02;3.33;;;1.00;;
20411;SDS011;10365;52.578;8.138;2023-04-03T15:20:28;2.78;;;0.95;;
20411;SDS011;10365;52.578;8.138;2023-04-03T15:22:55;3.50;;;1.02;;
20411;SDS011;10365;52.578;8.138;2023-04-03T15:25:26;2.92;;;1.23;;
20411;SDS011;10365;52.578;8.138;2023-04-03T15:27:52;2.33;;;0.82;;
20411;SDS011;10365;52.578;8.138;2023-04-03T15:30:18;2.17;;;0.73;;
20411;SDS011;10365;52.578;8.138;2023-04-03T15:32:43;4.05;;;0.93;;
20411;SDS011;10365;52.578;8.138;2023-04-03T15:35:09;4.30;;;1.45;;
20411;SDS011;10365;52.578;8.138;2023-04-03T15:37:35;3.47;;;0.80;;
20411;SDS011;10365;52.578;8.138;2023-04-03T15:40:00;6.00;;;1.10;;
20411;SDS011;10365;52.578;8.138;2023-04-03T15:42:25;4.95;;;1.00;;
20411;SDS011;10365;52.578;8.138;2023-04-03T15:44:51;3.08;;;1.05;;
20411;SDS011;10365;52.578;8.138;2023-04-03T15:47:16;4.38;;;1.00;;
20411;SDS011;10365;52.578;8.138;2023-04-03T15:49:42;4.25;;;1.00;;
20411;SDS011;10365;52.578;8.138;2023-04-03T15:52:07;3.65;;;1.08;;
20411;SDS011;10365;52.578;8.138;2023-04-03T15:54:33;7.03;;;1.17;;
20411;SDS011;10365;52.578;8.138;2023-04-03T15:56:58;3.63;;;0.90;;
20411;SDS011;10365;52.578;8.138;2023-04-03T15:59:24;7.40;;;1.13;;
20411;SDS011;10365;52.578;8.138;2023-04-03T16:01:49;3.13;;;0.93;;
20411;SDS011;10365;52.578;8.138;2023-04-03T16:04:15;6.78;;;1.25;;
20411;SDS011;10365;52.578;8.138;2023-04-03T16:06:41;5.07;;;2.58;;
20411;SDS011;10365;52.578;8.138;2023-04-03T16:09:07;6.35;;;1.80;;
20411;SDS011;10365;52.578;8.138;2023-04-03T16:11:33;4.05;;;0.98;;
20411;SDS011;10365;52.578;8.138;2023-04-03T16:14:02;3.53;;;1.20;;
20411;SDS011;10365;52.578;8.138;2023-04-03T16:16:27;5.22;;;1.25;;
20411;SDS011;10365;52.578;8.138;2023-04-03T16:18:56;4.45;;;1.40;;
20411;SDS011;10365;52.578;8.138;2023-04-03T16:21:21;4.80;;;1.00;;